Time;durP1;ratioP1;P1;durP2;ratioP2;P2;SDS_P1;SDS_P2;PMS_P1;PMS_P2;Temp;Humidity;BMP_temperature;BMP_pressure;BME280_temperature;BME280_humidity;BME280_pressure;Samples;Min_cycle;Max_cycle;Signal;HPM_P1;HPM_P2
2023/07/28 00:00:08;;;;;;;0.60;0.60;;;;;;;25.43;55.72;96817.06;5072061;28;20204;-27
2023/07/28 00:02:35;;;;;;;0.53;0.53;;;;;;;25.40;55.86;96806.78;5072011;28;20307;-27
2023/07/28 00:05:01;;;;;;;0.70;0.70;;;;;;;25.42;55.74;96820.50;5071454;28;20710;-30
2023/07/28 00:07:28;;;;;;;0.70;0.70;;;;;;;25.40;56.11;96805.94;5071670;28;20706;-27
2023/07/28 00:09:54;;;;;;;0.70;0.70;;;;;;;25.44;56.06;96810.22;5071752;28;20200;-28
2023/07/28 00:12:22;;;;;;;0.60;0.60;;;;;;;25.44;56.17;96810.22;5071945;28;20584;-38
2023/07/28 00:14:48;;;;;;;0.60;0.60;;;;;;;25.43;56.07;96803.38;5071606;28;20204;-27
2023/07/28 00:17:15;;;;;;;0.70;0.70;;;;;;;25.44;55.99;96808.53;5071367;28;20250;-27
2023/07/28 00:19:41;;;;;;;1.47;0.60;;;;;;;25.44;55.96;96805.06;5070833;28;20239;-27
2023/07/28 00:22:08;;;;;;;0.60;0.60;;;;;;;25.45;56.13;96804.22;5069047;28;20258;-27
2023/07/28 00:24:35;;;;;;;0.67;0.67;;;;;;;25.44;56.25;96810.22;5072037;28;20272;-27
2023/07/28 00:27:01;;;;;;;0.60;0.60;;;;;;;25.43;56.06;96811.91;5071127;28;20232;-27
2023/07/28 00:29:28;;;;;;;0.60;0.60;;;;;;;25.44;55.93;96799.94;5071866;28;20581;-27
2023/07/28 00:31:54;;;;;;;0.60;0.60;;;;;;;25.44;55.82;96792.22;5071273;28;20219;-27
2023/07/28 00:34:21;;;;;;;0.70;0.70;;;;;;;25.44;55.82;96797.34;5071339;28;20670;-27
2023/07/28 00:36:47;;;;;;;0.70;0.70;;;;;;;25.44;56.19;96797.34;5071473;28;20277;-27
2023/07/28 00:39:14;;;;;;;0.57;0.57;;;;;;;25.44;56.07;96794.78;5071453;28;20255;-27
2023/07/28 00:41:41;;;;;;;0.70;0.70;;;;;;;25.44;56.27;96792.22;5070977;28;20246;-27
2023/07/28 00:44:07;;;;;;;0.60;0.60;;;;;;;25.44;55.89;96797.34;5071516;28;20216;-29
2023/07/28 00:46:34;;;;;;;0.60;0.60;;;;;;;25.43;56.24;96791.34;5071331;28;20204;-28
2023/07/28 00:49:01;;;;;;;0.60;0.60;;;;;;;25.42;56.06;96787.06;5070048;28;20228;-27
2023/07/28 00:51:28;;;;;;;0.60;0.60;;;;;;;25.44;55.95;96802.50;5069863;28;20204;-27
2023/07/28 00:53:54;;;;;;;0.70;0.70;;;;;;;25.44;56.12;96789.63;5070765;28;20330;-27
2023/07/28 00:56:21;;;;;;;0.70;0.70;;;;;;;25.41;55.98;96785.34;5053564;28;20204;-27
2023/07/28 00:58:48;;;;;;;0.60;0.60;;;;;;;25.43;56.39;96791.34;5052926;28;20235;-27
2023/07/28 01:01:14;;;;;;;0.70;0.70;;;;;;;25.44;56.25;96787.06;5062485;28;20200;-27
2023/07/28 01:03:41;;;;;;;0.70;0.70;;;;;;;25.43;56.08;96786.19;5070989;28;20196;-27
2023/07/28 01:06:36;;;;;;;0.70;0.70;;;;;;;25.42;56.26;96787.06;5069506;28;20606;-27
2023/07/28 01:09:05;;;;;;;0.70;0.70;;;;;;;25.43;56.38;96778.47;5066631;28;20216;-27
2023/07/28 01:11:32;;;;;;;0.60;0.60;;;;;;;25.41;56.36;96781.91;5063617;28;20209;-27
2023/07/28 01:13:59;;;;;;;0.70;0.70;;;;;;;25.39;56.15;96779.34;5071372;28;20569;-27
2023/07/28 01:16:25;;;;;;;0.60;0.60;;;;;;;25.42;56.24;96787.06;5071208;28;20204;-27
2023/07/28 01:18:52;;;;;;;0.63;0.63;;;;;;;25.43;56.30;96778.47;5070778;28;20223;-27
2023/07/28 01:21:25;;;;;;;0.70;0.70;;;;;;;25.45;56.43;96775.91;5069910;28;20236;-27
2023/07/28 01:24:20;;;;;;;0.60;0.60;;;;;;;25.45;56.48;96788.78;5071353;28;20232;-27
2023/07/28 01:26:46;;;;;;;0.60;0.60;;;;;;;25.43;56.39;96777.63;5069782;28;20258;-27
2023/07/28 01:29:14;;;;;;;0.70;0.70;;;;;;;25.44;56.20;96776.78;5049673;28;20598;-27
2023/07/28 01:31:41;;;;;;;0.70;0.70;;;;;;;25.42;56.33;96771.63;5071157;28;20204;-29
2023/07/28 01:34:08;;;;;;;0.60;0.60;;;;;;;25.45;56.35;96774.22;5073402;28;20218;-27
2023/07/28 01:36:34;;;;;;;0.70;0.70;;;;;;;25.45;55.99;96778.47;5074898;28;20277;-27
2023/07/28 01:39:02;;;;;;;0.70;0.70;;;;;;;25.45;56.00;96783.63;5073449;28;20278;-27
2023/07/28 01:41:28;;;;;;;0.60;0.60;;;;;;;25.45;56.31;96779.34;5074450;28;20207;-27
2023/07/28 01:43:55;;;;;;;0.70;0.70;;;;;;;25.46;55.94;96780.22;5073141;28;20201;-27
2023/07/28 01:47:06;;;;;;;0.63;0.63;;;;;;;25.46;56.17;96780.22;5074736;28;20588;-27
2023/07/28 01:49:32;;;;;;;0.70;0.70;;;;;;;25.47;56.01;96779.34;5073866;28;20254;-27
2023/07/28 01:51:59;;;;;;;0.70;0.70;;;;;;;25.46;56.07;96775.06;5074678;28;20192;-27
2023/07/28 01:54:25;;;;;;;0.70;0.70;;;;;;;25.46;56.44;96770.78;5074570;28;20192;-27
2023/07/28 01:56:52;;;;;;;0.80;0.80;;;;;;;25.46;56.52;96775.91;5074744;28;20269;-27
2023/07/28 01:59:20;;;;;;;0.70;0.70;;;;;;;25.44;56.37;96771.63;5074109;28;20238;-27
2023/07/28 02:01:47;;;;;;;0.77;0.77;;;;;;;25.45;56.07;96771.63;5074478;28;20200;-27
2023/07/28 02:04:15;;;;;;;0.70;0.70;;;;;;;25.43;56.05;96763.03;5074623;28;20208;-27
2023/07/28 02:06:42;;;;;;;0.70;0.70;;;;;;;25.47;56.37;96766.50;5074347;28;20289;-27
2023/07/28 02:09:08;;;;;;;0.70;0.70;;;;;;;25.47;56.10;96769.94;5074056;28;20698;-27
2023/07/28 02:11:35;;;;;;;0.63;0.63;;;;;;;25.46;56.51;96764.78;5074272;28;20662;-27
2023/07/28 02:14:01;;;;;;;0.60;0.60;;;;;;;25.47;56.38;96762.22;5074150;28;20618;-27
2023/07/28 02:16:30;;;;;;;0.60;0.60;;;;;;;25.48;56.20;96763.06;5074610;28;20204;-27
2023/07/28 02:18:57;;;;;;;0.63;0.63;;;;;;;25.47;56.50;96762.22;5071379;28;20212;-27
2023/07/28 02:21:23;;;;;;;0.70;0.70;;;;;;;25.49;56.07;96762.22;5073193;28;20211;-32
2023/07/28 02:23:50;;;;;;;0.70;0.70;;;;;;;25.49;56.11;96760.47;5074300;28;20251;-27
2023/07/28 02:26:16;;;;;;;0.63;0.63;;;;;;;25.48;56.08;96761.34;5073863;28;20285;-27
2023/07/28 02:28:43;;;;;;;0.70;0.70;;;;;;;25.48;56.18;96766.50;5068479;28;20702;-33
2023/07/28 02:31:10;;;;;;;0.60;0.60;;;;;;;25.49;56.61;96767.38;5073407;28;20249;-27
2023/07/28 02:33:36;;;;;;;0.60;0.60;;;;;;;25.49;56.57;96764.78;5074213;28;20204;-27
2023/07/28 02:36:06;;;;;;;0.63;0.63;;;;;;;25.49;56.16;96757.91;5073763;28;20235;-27
2023/07/28 02:38:32;;;;;;;0.67;0.67;;;;;;;25.49;56.41;96749.34;5072682;28;20228;-27
2023/07/28 02:40:59;;;;;;;0.60;0.60;;;;;;;25.50;56.25;96766.50;5073794;28;20223;-28
2023/07/28 02:43:26;;;;;;;0.70;0.70;;;;;;;25.50;56.31;96759.66;5072697;28;20292;-27
2023/07/28 02:45:56;;;;;;;0.60;0.60;;;;;;;25.49;56.03;96760.47;5073539;28;20314;-27
2023/07/28 02:48:22;;;;;;;0.70;0.70;;;;;;;25.50;56.40;96769.06;5069143;28;20270;-29
2023/07/28 02:50:52;;;;;;;0.70;0.70;;;;;;;25.50;56.25;96763.94;5073481;28;20204;-27
2023/07/28 02:53:19;;;;;;;0.70;0.70;;;;;;;25.51;56.39;96765.63;5073236;28;20554;-27
2023/07/28 02:55:46;;;;;;;0.70;0.70;;;;;;;25.49;56.08;96757.91;5073378;28;20679;-27
2023/07/28 02:58:13;;;;;;;0.60;0.60;;;;;;;25.51;56.39;96763.94;5072971;28;20315;-27
2023/07/28 03:00:43;;;;;;;0.70;0.70;;;;;;;25.51;56.25;96765.63;5073481;28;20204;-27
2023/07/28 03:03:10;;;;;;;0.73;0.73;;;;;;;25.50;56.00;96766.50;5073388;28;20261;-28
2023/07/28 03:05:37;;;;;;;0.60;0.60;;;;;;;25.46;56.45;96757.91;5073272;28;20637;-27
2023/07/28 03:08:04;;;;;;;0.60;0.60;;;;;;;25.48;56.28;96763.91;5073040;28;20244;-27
2023/07/28 03:10:31;;;;;;;0.70;0.70;;;;;;;25.47;56.44;96762.22;5073053;28;20204;-27
2023/07/28 03:12:57;;;;;;;0.70;0.70;;;;;;;25.45;55.97;96763.91;5072814;28;20223;-28
2023/07/28 03:15:24;;;;;;;0.63;0.63;;;;;;;25.46;56.39;96764.78;5073363;28;20633;-27
2023/07/28 03:17:50;;;;;;;0.70;0.70;;;;;;;25.47;56.43;96753.63;5072891;28;20667;-27
2023/07/28 03:20:17;;;;;;;0.60;0.60;;;;;;;25.46;56.54;96747.63;5073222;28;20679;-27
2023/07/28 03:22:44;;;;;;;1.80;0.80;;;;;;;25.46;56.45;96739.91;5072644;28;20659;-28
2023/07/28 03:25:11;;;;;;;0.70;0.70;;;;;;;25.47;56.63;96751.06;5071123;28;20208;-27
2023/07/28 03:27:37;;;;;;;0.70;0.70;;;;;;;25.45;56.42;96743.34;5072730;28;20315;-27
2023/07/28 03:30:06;;;;;;;0.60;0.60;;;;;;;25.43;56.26;96750.19;5072860;28;20246;-33
2023/07/28 03:32:33;;;;;;;0.80;0.80;;;;;;;25.45;56.24;96769.06;5072584;28;20208;-27
2023/07/28 03:35:00;;;;;;;0.60;0.60;;;;;;;25.45;56.13;96765.63;5072455;28;20232;-27
2023/07/28 03:37:26;;;;;;;0.70;0.70;;;;;;;25.44;56.40;96771.63;5073018;28;20248;-29
2023/07/28 03:39:53;;;;;;;0.70;0.70;;;;;;;25.43;56.36;96773.34;5072348;28;20196;-27
2023/07/28 03:42:19;;;;;;;0.73;0.73;;;;;;;25.43;56.31;96772.50;5072585;28;20205;-28
2023/07/28 03:44:46;;;;;;;0.80;0.80;;;;;;;25.41;56.60;96774.19;5072662;28;20622;-27
2023/07/28 03:47:12;;;;;;;0.80;0.80;;;;;;;25.44;56.39;96779.34;5070801;28;20246;-27
2023/07/28 03:49:39;;;;;;;0.70;0.70;;;;;;;25.38;56.35;96777.63;5072179;28;20554;-27
2023/07/28 03:52:06;;;;;;;0.77;0.77;;;;;;;25.43;56.62;96780.22;5072012;28;20208;-27
2023/07/28 03:54:32;;;;;;;0.77;0.77;;;;;;;25.43;56.26;96783.63;5072021;28;20208;-27
2023/07/28 03:56:59;;;;;;;0.80;0.80;;;;;;;25.44;56.67;96780.22;5071202;28;20227;-27
2023/07/28 03:59:25;;;;;;;0.60;0.60;;;;;;;25.42;56.64;96779.34;5071973;28;20722;-27
2023/07/28 04:01:52;;;;;;;0.60;0.60;;;;;;;25.45;56.70;96783.63;5072060;28;20287;-28
2023/07/28 04:04:19;;;;;;;0.77;0.77;;;;;;;25.44;56.51;96774.19;5071989;28;20200;-27
2023/07/28 04:06:46;;;;;;;0.60;0.60;;;;;;;25.43;56.47;96767.34;5072047;28;20278;-27
2023/07/28 04:09:13;;;;;;;0.63;0.63;;;;;;;25.43;56.56;96765.63;5071745;28;20224;-27
2023/07/28 04:11:40;;;;;;;0.70;0.70;;;;;;;25.43;56.40;96777.63;5072233;28;20204;-27
2023/07/28 04:14:07;;;;;;;0.60;0.60;;;;;;;25.45;56.45;96793.91;5071998;28;20269;-27
2023/07/28 04:16:33;;;;;;;0.70;0.70;;;;;;;25.43;56.68;96793.91;5072031;28;20193;-27
2023/07/28 04:19:00;;;;;;;0.60;0.60;;;;;;;25.43;56.82;96795.66;5071896;28;20277;-27
2023/07/28 04:21:27;;;;;;;0.70;0.70;;;;;;;25.43;56.68;96788.78;5071415;28;20282;-27
2023/07/28 04:23:53;;;;;;;0.63;0.63;;;;;;;25.44;56.32;96805.06;5070943;28;20253;-27
2023/07/28 04:26:20;;;;;;;0.70;0.70;;;;;;;25.42;56.79;96809.34;5071662;28;20303;-27
2023/07/28 04:28:46;;;;;;;0.67;0.67;;;;;;;25.43;56.75;96805.94;5071963;28;20663;-27
2023/07/28 04:31:13;;;;;;;0.60;0.60;;;;;;;25.42;56.37;96799.06;5071404;28;20231;-27
2023/07/28 04:33:43;;;;;;;0.60;0.60;;;;;;;25.43;56.29;96805.94;5071692;28;20647;-27
2023/07/28 04:36:09;;;;;;;0.80;0.80;;;;;;;25.43;56.73;96808.50;5071387;28;20200;-27
2023/07/28 04:38:36;;;;;;;0.60;0.60;;;;;;;25.42;56.70;96799.06;5071872;28;20219;-28
2023/07/28 04:41:02;;;;;;;0.70;0.70;;;;;;;25.42;56.33;96799.06;5071683;28;20287;-27
2023/07/28 04:43:29;;;;;;;0.70;0.70;;;;;;;25.42;56.35;96799.06;5071516;28;20200;-27
2023/07/28 04:45:56;;;;;;;0.70;0.70;;;;;;;25.37;56.36;96801.63;5071642;28;20220;-27
2023/07/28 04:48:22;;;;;;;0.70;0.70;;;;;;;25.42;56.56;96814.50;5071407;28;20220;-27
2023/07/28 04:50:49;;;;;;;0.60;0.60;;;;;;;25.42;56.37;96809.34;5071559;28;20200;-27
2023/07/28 04:53:15;;;;;;;0.60;0.60;;;;;;;25.42;56.66;96815.38;5071598;28;20200;-27
2023/07/28 04:55:42;;;;;;;0.70;0.70;;;;;;;25.42;56.70;96815.38;5071728;28;20224;-27
2023/07/28 04:58:08;;;;;;;0.60;0.60;;;;;;;25.42;56.88;96815.38;5071472;28;20231;-27
2023/07/28 05:00:35;;;;;;;0.60;0.60;;;;;;;25.42;56.80;96817.06;5071810;28;20200;-27
2023/07/28 05:03:02;;;;;;;0.70;0.70;;;;;;;25.42;56.63;96817.94;5071275;28;20706;-27
2023/07/28 05:05:31;;;;;;;0.70;0.70;;;;;;;25.42;56.70;96819.63;5071315;28;20216;-27
2023/07/28 05:07:58;;;;;;;0.70;0.70;;;;;;;25.43;56.69;96818.81;5074970;28;20585;-27
2023/07/28 05:10:24;;;;;;;0.60;0.60;;;;;;;25.42;56.38;96814.50;5075481;28;20296;-27
2023/07/28 05:12:51;;;;;;;0.70;0.70;;;;;;;25.42;56.53;96805.06;5075448;28;20555;-27
2023/07/28 05:15:17;;;;;;;0.60;0.60;;;;;;;25.41;56.37;96805.94;5075326;28;20617;-27
2023/07/28 05:17:44;;;;;;;0.70;0.70;;;;;;;25.38;56.78;96802.50;5075294;28;20290;-27
2023/07/28 05:20:11;;;;;;;0.70;0.70;;;;;;;25.39;56.48;96802.50;5075591;28;20192;-27
2023/07/28 05:22:37;;;;;;;0.60;0.60;;;;;;;25.42;56.40;96817.06;5075316;28;20192;-27
2023/07/28 05:25:04;;;;;;;0.70;0.70;;;;;;;25.42;56.39;96829.94;5075358;28;20622;-27
2023/07/28 05:27:31;;;;;;;0.70;0.70;;;;;;;25.42;56.70;96827.34;5074989;28;20262;-27
2023/07/28 05:29:58;;;;;;;0.60;0.60;;;;;;;25.42;56.70;96824.78;5090632;28;20192;-27
2023/07/28 05:32:25;;;;;;;0.70;0.70;;;;;;;25.42;56.38;96822.22;5073638;28;20258;-27
2023/07/28 05:34:51;;;;;;;0.70;0.70;;;;;;;25.40;56.83;96821.38;5075222;28;20200;-27
2023/07/28 05:37:18;;;;;;;0.70;0.70;;;;;;;25.41;56.56;96828.22;5074896;28;20730;-27
2023/07/28 05:39:45;;;;;;;0.70;0.70;;;;;;;25.42;56.50;96833.38;5074889;28;20200;-27
2023/07/28 05:42:11;;;;;;;0.70;0.70;;;;;;;25.42;56.70;96822.22;5074666;28;20200;-27
2023/07/28 05:44:38;;;;;;;0.60;0.60;;;;;;;25.42;56.66;96820.50;5074644;28;20604;-29
2023/07/28 05:47:05;;;;;;;0.80;0.80;;;;;;;25.42;56.62;96830.78;5074505;28;20265;-27
2023/07/28 05:49:31;;;;;;;0.70;0.70;;;;;;;25.43;56.78;96836.81;5074691;28;20200;-27
2023/07/28 05:51:58;;;;;;;0.70;0.70;;;;;;;25.43;56.70;96841.97;5074512;28;20283;-27
2023/07/28 05:54:25;;;;;;;0.70;0.70;;;;;;;25.38;56.52;96835.94;5074676;28;20581;-28
2023/07/28 05:56:51;;;;;;;0.60;0.60;;;;;;;25.42;56.85;96843.66;5074550;28;20279;-27
2023/07/28 05:59:18;;;;;;;0.70;0.70;;;;;;;25.42;56.50;96851.38;5071640;28;20633;-27
2023/07/28 06:01:44;;;;;;;0.70;0.70;;;;;;;25.42;56.62;96829.94;5074687;28;20635;-27
2023/07/28 06:04:11;;;;;;;0.60;0.60;;;;;;;25.40;56.89;96836.81;5074673;28;20202;-27
2023/07/28 06:06:38;;;;;;;0.60;0.60;;;;;;;25.42;56.58;96845.38;5066372;28;20699;-27
2023/07/28 06:09:04;;;;;;;0.60;0.60;;;;;;;25.42;56.57;96841.09;5074486;28;20808;-27
2023/07/28 06:11:31;;;;;;;0.70;0.70;;;;;;;25.42;56.51;96842.78;5074106;28;20349;-27
2023/07/28 06:13:58;;;;;;;0.70;0.70;;;;;;;25.41;56.33;96841.09;5074145;28;20652;-27
2023/07/28 06:16:24;;;;;;;0.70;0.70;;;;;;;25.42;56.48;96841.09;5074469;28;20196;-27
2023/07/28 06:18:51;;;;;;;0.70;0.70;;;;;;;25.42;56.88;96840.22;5073211;28;20227;-27
2023/07/28 06:21:17;;;;;;;0.70;0.70;;;;;;;25.42;56.45;96848.81;5074182;28;20210;-27
2023/07/28 06:23:44;;;;;;;0.60;0.60;;;;;;;25.41;56.91;96857.38;5074156;28;20193;-27
2023/07/28 06:26:11;;;;;;;0.63;0.63;;;;;;;25.42;56.65;96860.81;5073874;28;20216;-27
2023/07/28 06:28:38;;;;;;;0.60;0.60;;;;;;;25.42;56.42;96860.81;5073696;28;20216;-27
2023/07/28 06:31:05;;;;;;;0.70;0.70;;;;;;;25.42;56.42;96855.66;5074294;28;20200;-27
2023/07/28 06:33:32;;;;;;;0.70;0.70;;;;;;;25.42;56.49;96861.66;5073676;28;20663;-27
2023/07/28 06:35:58;;;;;;;0.70;0.70;;;;;;;25.42;56.56;96860.81;5074362;28;20192;-28
2023/07/28 06:38:25;;;;;;;0.60;0.60;;;;;;;25.42;56.41;96853.94;5071760;28;20569;-27
2023/07/28 06:40:52;;;;;;;0.60;0.60;;;;;;;25.42;56.83;96853.94;5073749;28;20643;-27
2023/07/28 06:43:19;;;;;;;0.60;0.60;;;;;;;25.42;56.35;96866.81;5073288;28;20299;-27
2023/07/28 06:45:46;;;;;;;0.70;0.70;;;;;;;25.41;56.62;96854.81;5073774;28;20222;-27
2023/07/28 06:48:13;;;;;;;0.63;0.63;;;;;;;25.43;56.57;96859.97;5073504;28;20346;-28
2023/07/28 06:50:39;;;;;;;0.70;0.70;;;;;;;25.43;56.78;96872.84;5073588;28;20200;-27
2023/07/28 06:53:06;;;;;;;0.60;0.60;;;;;;;25.43;56.56;96870.25;5073530;28;20200;-27
2023/07/28 06:55:32;;;;;;;0.70;0.70;;;;;;;25.44;56.83;96870.25;5073361;28;20231;-27
2023/07/28 06:57:59;;;;;;;0.70;0.70;;;;;;;25.43;56.29;96871.09;5073326;28;20281;-28
2023/07/28 07:00:26;;;;;;;0.63;0.63;;;;;;;25.43;56.31;96878.81;5073398;28;20588;-27
2023/07/28 07:02:53;;;;;;;0.60;0.60;;;;;;;25.43;56.42;96886.53;5073437;28;20219;-27
2023/07/28 07:05:19;;;;;;;0.63;0.63;;;;;;;25.38;56.36;96875.38;5073458;28;20204;-27
2023/07/28 07:07:46;;;;;;;0.80;0.80;;;;;;;25.41;56.73;96885.69;5073051;28;20228;-28
2023/07/28 07:10:13;;;;;;;0.60;0.60;;;;;;;25.42;56.23;96891.66;5073201;28;20254;-27
2023/07/28 07:12:40;;;;;;;0.60;0.60;;;;;;;25.42;56.58;96892.53;5072709;28;20796;-28
2023/07/28 07:15:07;;;;;;;0.70;0.70;;;;;;;25.42;56.45;96889.97;5073160;28;20196;-27
2023/07/28 07:17:33;;;;;;;0.70;0.70;;;;;;;25.42;56.79;96895.13;5073214;28;20235;-27
2023/07/28 07:20:00;;;;;;;0.60;0.60;;;;;;;25.41;56.41;96888.25;5073138;28;20245;-27
2023/07/28 07:22:28;;;;;;;0.70;0.70;;;;;;;25.40;56.80;96885.69;5072713;28;20204;-27
2023/07/28 07:24:56;;;;;;;2.00;0.80;;;;;;;25.42;56.40;96891.66;5072913;28;20200;-27
2023/07/28 07:27:24;;;;;;;0.70;0.70;;;;;;;25.41;56.45;96901.13;5072515;28;20220;-27
2023/07/28 07:29:52;;;;;;;0.60;0.60;;;;;;;25.42;56.25;96904.53;5072820;28;20250;-27
2023/07/28 07:32:18;;;;;;;0.70;0.70;;;;;;;25.42;56.73;96894.25;5072439;28;20200;-27
2023/07/28 07:34:45;;;;;;;0.60;0.60;;;;;;;25.42;56.30;96889.09;5072609;28;20200;-27
2023/07/28 07:37:11;;;;;;;0.70;0.70;;;;;;;25.41;56.33;96897.69;5072431;28;20201;-32
2023/07/28 07:39:40;;;;;;;0.70;0.70;;;;;;;25.39;56.58;96894.22;5072867;28;20196;-27
2023/07/28 07:42:09;;;;;;;0.60;0.60;;;;;;;25.40;56.73;96889.09;5072928;28;20197;-27
2023/07/28 07:44:36;;;;;;;0.77;0.77;;;;;;;25.42;56.57;96892.53;5072494;28;20231;-27
2023/07/28 07:47:11;;;;;;;0.50;0.50;;;;;;;25.41;56.44;96889.97;5072611;28;20289;-27
2023/07/28 07:49:37;;;;;;;0.50;0.50;;;;;;;25.36;56.49;96889.94;5070916;28;20616;-27
2023/07/28 07:52:06;;;;;;;0.67;0.67;;;;;;;25.42;56.40;96901.97;5072230;28;20666;-27
2023/07/28 07:54:33;;;;;;;0.60;0.60;;;;;;;25.41;56.33;96897.69;5072292;28;20803;-27
2023/07/28 07:56:59;;;;;;;0.70;0.70;;;;;;;25.41;56.33;96901.13;5072158;28;20197;-27
2023/07/28 07:59:28;;;;;;;0.60;0.60;;;;;;;25.41;56.42;96900.25;5072006;28;20271;-27
2023/07/28 08:01:54;;;;;;;0.70;0.70;;;;;;;25.40;56.43;96901.97;5072036;28;20239;-27
2023/07/28 08:04:21;;;;;;;0.60;0.60;;;;;;;25.42;56.35;96912.25;5071908;28;20200;-27
2023/07/28 08:06:47;;;;;;;0.63;0.63;;;;;;;25.40;56.19;96907.09;5072146;28;20212;-27
2023/07/28 08:09:14;;;;;;;0.70;0.70;;;;;;;25.41;56.29;96911.41;5072055;28;20216;-27
2023/07/28 08:11:40;;;;;;;0.70;0.70;;;;;;;25.41;56.17;96905.41;5071946;28;20240;-27
2023/07/28 08:14:07;;;;;;;0.70;0.70;;;;;;;25.42;56.61;96913.13;5072100;28;20200;-28
2023/07/28 08:16:34;;;;;;;0.60;0.60;;;;;;;25.41;56.22;96908.84;5071698;28;20197;-27
2023/07/28 08:19:00;;;;;;;0.70;0.70;;;;;;;25.43;56.35;96916.56;5071731;28;20251;-27
2023/07/28 08:21:27;;;;;;;0.60;0.60;;;;;;;25.43;56.45;96925.13;5071521;28;20208;-27
2023/07/28 08:23:53;;;;;;;0.67;0.67;;;;;;;25.44;56.37;96918.28;5071807;28;20246;-27
2023/07/28 08:26:20;;;;;;;0.70;0.70;;;;;;;25.43;56.34;96914.00;5071495;28;20216;-27
2023/07/28 08:28:46;;;;;;;0.70;0.70;;;;;;;25.43;56.17;96919.97;5071818;28;20264;-27
2023/07/28 08:31:13;;;;;;;0.67;0.67;;;;;;;25.42;56.30;96913.13;5071476;28;20292;-27
2023/07/28 08:33:39;;;;;;;0.80;0.80;;;;;;;25.42;56.62;96913.13;5071738;28;20200;-27
2023/07/28 08:36:06;;;;;;;0.70;0.70;;;;;;;25.42;56.24;96915.69;5071765;28;20196;-27
2023/07/28 08:38:33;;;;;;;0.60;0.60;;;;;;;25.42;56.29;96907.97;5071610;28;20278;-27
2023/07/28 08:40:59;;;;;;;0.70;0.70;;;;;;;25.41;56.65;96913.13;5071193;28;20236;-29
2023/07/28 08:43:26;;;;;;;0.70;0.70;;;;;;;25.42;56.19;96914.81;5071511;28;20208;-27
2023/07/28 08:45:52;;;;;;;0.70;0.70;;;;;;;25.40;56.23;96916.56;5062136;28;20230;-28
2023/07/28 08:48:19;;;;;;;0.60;0.60;;;;;;;25.42;56.17;96917.41;5053488;28;20223;-27
2023/07/28 08:50:46;;;;;;;0.70;0.70;;;;;;;25.38;56.06;96911.41;5071670;28;20287;-27
2023/07/28 08:53:13;;;;;;;0.70;0.70;;;;;;;25.42;56.21;96925.13;5071302;28;20204;-27
2023/07/28 08:55:39;;;;;;;0.60;0.60;;;;;;;25.42;56.45;96919.97;5071498;28;20227;-28
2023/07/28 08:58:19;;;;;;;0.70;0.70;;;;;;;25.42;56.43;96922.53;5071176;28;20327;-27
2023/07/28 09:00:49;;;;;;;0.77;0.77;;;;;;;25.41;56.55;96925.97;5071241;28;20249;-27
2023/07/28 09:03:19;;;;;;;0.70;0.70;;;;;;;25.42;56.66;96933.69;5071810;28;20287;-33
2023/07/28 09:05:46;;;;;;;0.70;0.70;;;;;;;25.42;56.53;96933.69;5071239;28;20196;-27
2023/07/28 09:08:13;;;;;;;0.70;0.70;;;;;;;25.42;56.16;96937.97;5071287;28;20226;-29
2023/07/28 09:10:51;;;;;;;0.63;0.63;;;;;;;25.42;56.24;96941.41;5071085;28;20245;-27
2023/07/28 09:13:18;;;;;;;0.60;0.60;;;;;;;25.40;56.42;96942.28;5071212;28;20295;-27
2023/07/28 09:15:44;;;;;;;0.70;0.70;;;;;;;25.42;56.23;96944.00;5071245;28;20204;-27
2023/07/28 09:18:16;;;;;;;0.60;0.60;;;;;;;25.43;56.42;96950.84;5071366;28;20215;-27
2023/07/28 09:20:43;;;;;;;0.70;0.70;;;;;;;25.42;56.18;96943.13;5071220;28;20200;-27
2023/07/28 09:23:10;;;;;;;0.70;0.70;;;;;;;25.39;56.53;96940.53;5071633;28;20284;-27
2023/07/28 09:25:37;;;;;;;0.70;0.70;;;;;;;25.41;56.18;96939.72;5071165;28;20254;-28
2023/07/28 09:28:04;;;;;;;0.60;0.60;;;;;;;25.42;56.41;96948.28;5071171;28;20227;-29
2023/07/28 09:30:49;;;;;;;0.70;0.70;;;;;;;25.41;56.48;96952.56;5071631;28;20203;-27
2023/07/28 09:33:33;;;;;;;0.60;0.60;;;;;;;25.42;56.45;96940.56;5070997;28;20634;-27
2023/07/28 09:36:09;;;;;;;0.73;0.73;;;;;;;25.41;56.24;96937.13;5065080;28;20231;-27
2023/07/28 09:38:40;;;;;;;0.70;0.70;;;;;;;25.41;56.32;96933.69;5070871;28;20223;-28
2023/07/28 09:41:09;;;;;;;0.60;0.60;;;;;;;25.41;56.40;96939.72;5071296;28;20228;-27
2023/07/28 09:43:39;;;;;;;0.80;0.80;;;;;;;25.41;56.16;96947.44;5071086;28;20275;-27
2023/07/28 09:46:07;;;;;;;0.70;0.70;;;;;;;25.41;56.58;96938.84;5070898;28;20684;-27
2023/07/28 09:48:34;;;;;;;0.60;0.60;;;;;;;25.41;56.54;96936.28;5070466;28;20228;-27
2023/07/28 09:51:09;;;;;;;0.60;0.60;;;;;;;25.35;56.35;96924.25;5071299;28;20634;-27
2023/07/28 09:53:38;;;;;;;0.60;0.60;;;;;;;25.39;56.43;96932.81;5073421;28;20191;-27
2023/07/28 09:56:05;;;;;;;0.70;0.70;;;;;;;25.38;56.45;96923.38;5073629;28;20232;-28
2023/07/28 09:58:32;;;;;;;0.80;0.80;;;;;;;25.39;55.96;96925.97;5059193;28;20646;-27
2023/07/28 10:00:58;;;;;;;0.60;0.60;;;;;;;25.41;56.51;96933.69;5073498;28;20352;-27
2023/07/28 10:03:25;;;;;;;0.70;0.70;;;;;;;25.38;56.17;96928.53;5073428;28;20269;-27
2023/07/28 10:05:51;;;;;;;0.80;0.80;;;;;;;25.40;56.21;96927.69;5073272;28;20230;-27
2023/07/28 10:08:19;;;;;;;0.60;0.60;;;;;;;25.40;56.08;96926.84;5074184;28;20252;-27
2023/07/28 10:10:46;;;;;;;0.70;0.70;;;;;;;25.40;56.32;96932.81;5072965;28;20560;-27
2023/07/28 10:13:22;;;;;;;0.70;0.70;;;;;;;25.38;55.96;96925.97;5074410;28;20231;-27
2023/07/28 10:15:49;;;;;;;0.60;0.60;;;;;;;25.39;56.58;96930.25;5074288;28;20207;-27
2023/07/28 10:18:16;;;;;;;0.70;0.70;;;;;;;25.40;56.13;96927.69;5074391;28;20251;-27
2023/07/28 10:20:46;;;;;;;0.70;0.70;;;;;;;25.41;56.48;96933.69;5056300;28;20295;-27
2023/07/28 10:23:13;;;;;;;0.70;0.70;;;;;;;25.40;56.07;96934.56;5074145;28;20208;-27
2023/07/28 10:25:40;;;;;;;0.70;0.70;;;;;;;25.40;56.21;96939.72;5074183;28;20731;-27
2023/07/28 10:28:27;;;;;;;0.60;0.60;;;;;;;25.40;56.41;96940.53;5073552;28;20720;-27
2023/07/28 10:30:54;;;;;;;0.63;0.63;;;;;;;25.40;56.15;96940.53;5073103;28;20196;-27
2023/07/28 10:33:28;;;;;;;0.60;0.60;;;;;;;25.40;56.41;96950.84;5073886;28;20204;-27
2023/07/28 10:35:55;;;;;;;0.70;0.70;;;;;;;25.39;55.96;96949.13;5074026;28;20195;-27
2023/07/28 10:38:28;;;;;;;0.63;0.63;;;;;;;25.41;56.48;96946.56;5072564;28;20221;-33
2023/07/28 10:41:08;;;;;;;0.70;0.70;;;;;;;25.41;56.11;96947.44;5073945;28;20265;-27
2023/07/28 10:43:35;;;;;;;0.57;0.57;;;;;;;25.40;56.12;96948.25;5073813;28;20611;-27
2023/07/28 10:46:01;;;;;;;0.80;0.80;;;;;;;25.40;56.24;96950.00;5073665;28;20287;-27
2023/07/28 10:48:28;;;;;;;0.70;0.70;;;;;;;25.41;55.98;96950.00;5073555;28;20287;-27
2023/07/28 10:50:55;;;;;;;0.70;0.70;;;;;;;25.40;55.99;96950.00;5073563;28;20196;-27
2023/07/28 10:53:21;;;;;;;0.67;0.67;;;;;;;25.38;56.03;96955.13;5073266;28;20235;-27
2023/07/28 10:55:48;;;;;;;0.70;0.70;;;;;;;25.38;56.28;96961.97;5073742;28;20196;-27
2023/07/28 10:58:14;;;;;;;0.80;0.80;;;;;;;25.39;56.28;96966.25;5072629;28;20667;-27
2023/07/28 11:00:41;;;;;;;0.60;0.60;;;;;;;25.36;56.13;96963.69;5073524;28;20612;-27
2023/07/28 11:03:08;;;;;;;0.50;0.50;;;;;;;25.37;56.13;96962.84;5073254;28;20197;-28
2023/07/28 11:05:34;;;;;;;0.67;0.67;;;;;;;25.39;56.41;96963.69;5072415;28;20627;-27
2023/07/28 11:08:01;;;;;;;0.80;0.80;;;;;;;25.41;55.95;96959.44;5071833;28;20776;-27
2023/07/28 11:10:28;;;;;;;0.70;0.70;;;;;;;25.41;56.11;96959.44;5073525;28;20258;-27
2023/07/28 11:12:57;;;;;;;0.60;0.60;;;;;;;25.41;56.06;96959.44;5073100;28;20204;-27
2023/07/28 11:15:28;;;;;;;0.73;0.73;;;;;;;25.39;56.28;96951.69;5073263;28;20667;-27
2023/07/28 11:17:55;;;;;;;0.63;0.63;;;;;;;25.37;55.82;96949.97;5071497;28;20269;-27
2023/07/28 11:20:23;;;;;;;0.63;0.63;;;;;;;25.41;56.36;96951.72;5072892;28;20200;-27
2023/07/28 11:22:57;;;;;;;0.77;0.77;;;;;;;25.39;56.24;96948.25;5073044;28;20257;-27
2023/07/28 11:25:24;;;;;;;0.60;0.60;;;;;;;25.40;56.19;96957.72;5073160;28;20264;-27
2023/07/28 11:27:51;;;;;;;0.70;0.70;;;;;;;25.39;56.47;96951.69;5072718;28;20289;-27
2023/07/28 11:30:18;;;;;;;0.60;0.60;;;;;;;25.38;56.04;96947.41;5073116;28;20196;-27
2023/07/28 11:32:46;;;;;;;0.70;0.70;;;;;;;25.39;56.20;96956.84;5072356;28;20212;-27
2023/07/28 11:35:14;;;;;;;0.70;0.70;;;;;;;25.39;56.27;96956.84;5072772;28;20204;-27